createdAt,value
2017-12-30T00:00:43.410Z,50.03
2017-12-30T00:03:09.686Z,50.01
2017-12-30T00:05:36.142Z,50.04
2017-12-30T00:08:02.680Z,50.03
2017-12-30T00:10:28.848Z,50.02
2017-12-30T00:12:55.024Z,50.03
2017-12-30T00:15:21.250Z,50.05
2017-12-30T00:17:47.450Z,50.02
2017-12-30T00:20:13.640Z,50.02
2017-12-30T00:22:45.756Z,50.03
2017-12-30T00:25:13.120Z,50.02
2017-12-30T00:27:39.337Z,50.02
2017-12-30T00:30:05.637Z,50.03
2017-12-30T00:32:31.842Z,50.00
2017-12-30T00:34:58.034Z,49.96
2017-12-30T00:37:24.289Z,49.99
2017-12-30T00:39:50.524Z,49.97
2017-12-30T00:42:16.729Z,50.00
2017-12-30T00:44:42.963Z,49.98
2017-12-30T00:47:09.130Z,49.93
2017-12-30T00:49:35.419Z,49.91
2017-12-30T00:52:01.600Z,49.93
2017-12-30T00:54:27.799Z,49.94
2017-12-30T00:56:54.321Z,49.94
2017-12-30T00:59:20.551Z,49.95
2017-12-30T01:01:46.748Z,49.97
2017-12-30T01:04:13.013Z,49.99
2017-12-30T01:06:39.313Z,49.94
2017-12-30T01:09:05.508Z,49.95
2017-12-30T01:11:31.818Z,49.96
2017-12-30T01:13:58.009Z,49.95
2017-12-30T01:16:24.196Z,49.95
2017-12-30T01:18:50.471Z,49.95
2017-12-30T01:21:16.985Z,49.96
2017-12-30T01:23:43.522Z,49.94
2017-12-30T01:26:09.775Z,49.93
2017-12-30T01:28:36.004Z,49.94
2017-12-30T01:31:02.191Z,49.94
2017-12-30T01:33:28.452Z,49.92
2017-12-30T01:35:54.689Z,49.90
2017-12-30T01:38:20.898Z,49.89
2017-12-30T01:40:47.525Z,49.93
2017-12-30T01:43:13.940Z,49.97
2017-12-30T01:45:40.124Z,49.98
2017-12-30T01:48:06.345Z,49.97
2017-12-30T01:50:32.569Z,49.99
2017-12-30T01:52:58.761Z,49.97
2017-12-30T01:55:25.034Z,49.96
2017-12-30T01:57:51.225Z,49.94
2017-12-30T02:00:17.762Z,49.91
2017-12-30T02:02:44.239Z,49.93
2017-12-30T02:05:10.477Z,49.89
2017-12-30T02:07:36.803Z,49.89
2017-12-30T02:10:03.223Z,49.90
2017-12-30T02:12:29.422Z,49.92
2017-12-30T02:14:55.596Z,49.93
2017-12-30T02:17:21.867Z,49.95
2017-12-30T02:19:48.112Z,49.95
2017-12-30T02:22:14.303Z,49.98
2017-12-30T02:24:40.860Z,50.04
2017-12-30T02:27:07.397Z,50.02
2017-12-30T02:29:33.604Z,50.01
2017-12-30T02:31:59.878Z,50.00
2017-12-30T02:34:26.096Z,50.03
2017-12-30T02:36:52.289Z,50.03
2017-12-30T02:39:18.797Z,50.00
2017-12-30T02:41:45.233Z,50.00
2017-12-30T02:44:11.753Z,50.01
2017-12-30T02:46:38.025Z,49.98
2017-12-30T02:49:04.577Z,49.96
2017-12-30T02:51:30.807Z,49.97
2017-12-30T02:53:57.065Z,49.97
2017-12-30T02:56:23.229Z,49.94
2017-12-30T02:58:49.491Z,49.92
2017-12-30T03:01:15.734Z,49.92
2017-12-30T03:03:41.953Z,49.91
2017-12-30T03:06:08.159Z,49.93
2017-12-30T03:08:34.399Z,49.93
2017-12-30T03:11:00.620Z,49.94
2017-12-30T03:13:26.871Z,49.94
2017-12-30T03:15:53.393Z,49.97
2017-12-30T03:18:19.613Z,49.95
2017-12-30T03:20:45.810Z,49.94
2017-12-30T03:23:12.078Z,49.92
2017-12-30T03:25:38.321Z,49.91
2017-12-30T03:28:04.516Z,49.92
2017-12-30T03:30:30.789Z,49.96
2017-12-30T03:32:56.986Z,49.97
2017-12-30T03:35:23.167Z,49.94
2017-12-30T03:37:49.416Z,49.93
2017-12-30T03:40:15.616Z,49.90
2017-12-30T03:42:41.827Z,49.93
2017-12-30T03:45:08.095Z,49.92
2017-12-30T03:47:34.313Z,49.92
2017-12-30T03:50:00.511Z,49.94
2017-12-30T03:52:26.799Z,49.96
2017-12-30T03:54:53.004Z,49.97
2017-12-30T03:57:19.212Z,49.94
2017-12-30T03:59:45.808Z,49.91
2017-12-30T04:02:12.036Z,49.91
2017-12-30T04:04:38.215Z,49.91
2017-12-30T04:07:04.492Z,49.95
2017-12-30T04:09:30.691Z,49.98
2017-12-30T04:11:56.941Z,49.97
2017-12-30T04:14:23.200Z,49.91
2017-12-30T04:16:49.419Z,49.90
2017-12-30T04:19:15.637Z,49.88
2017-12-30T04:21:41.906Z,49.92
2017-12-30T04:24:08.141Z,49.91
2017-12-30T04:26:34.330Z,49.84
2017-12-30T04:29:00.578Z,49.84
2017-12-30T04:31:26.809Z,49.86
2017-12-30T04:33:52.999Z,49.89
2017-12-30T04:36:19.275Z,49.93
2017-12-30T04:38:45.508Z,49.93
2017-12-30T04:41:11.738Z,49.93
2017-12-30T04:43:37.991Z,49.93
2017-12-30T04:46:04.182Z,49.97
2017-12-30T04:48:30.412Z,49.94
2017-12-30T04:50:56.664Z,49.91
2017-12-30T04:53:23.079Z,49.87
2017-12-30T04:55:49.310Z,49.87
2017-12-30T04:58:15.598Z,49.84
2017-12-30T05:00:41.841Z,49.84
2017-12-30T05:03:08.359Z,49.83
2017-12-30T05:05:34.608Z,49.80
2017-12-30T05:08:00.824Z,49.79
2017-12-30T05:10:27.002Z,49.83
2017-12-30T05:12:53.271Z,49.85
2017-12-30T05:15:19.715Z,49.91
2017-12-30T05:17:45.929Z,49.82
2017-12-30T05:20:12.225Z,49.86
2017-12-30T05:22:38.443Z,49.87
2017-12-30T05:25:04.699Z,49.85
2017-12-30T05:27:30.888Z,49.84
2017-12-30T05:29:57.076Z,49.85
2017-12-30T05:32:23.605Z,49.87
2017-12-30T05:34:49.832Z,49.91
2017-12-30T05:37:16.060Z,49.92
2017-12-30T05:39:42.572Z,49.96
2017-12-30T05:42:08.790Z,49.99
2017-12-30T05:44:34.976Z,49.97
2017-12-30T05:47:01.207Z,49.97
2017-12-30T05:49:27.713Z,49.97
2017-12-30T05:51:53.933Z,49.97
2017-12-30T05:54:20.187Z,49.95
2017-12-30T05:56:46.423Z,49.96
2017-12-30T05:59:12.933Z,49.99
2017-12-30T06:01:39.185Z,49.99
2017-12-30T06:04:05.422Z,49.98
2017-12-30T06:06:31.883Z,49.97
2017-12-30T06:08:58.158Z,50.00
2017-12-30T06:11:24.373Z,49.99
2017-12-30T06:13:50.576Z,49.95
2017-12-30T06:16:16.866Z,49.92
2017-12-30T06:18:43.052Z,49.88
2017-12-30T06:21:09.267Z,49.86
2017-12-30T06:23:35.500Z,49.88
2017-12-30T06:26:01.693Z,49.90
2017-12-30T06:28:27.874Z,49.89
2017-12-30T06:30:54.133Z,49.88
2017-12-30T06:33:20.359Z,49.87
2017-12-30T06:35:46.778Z,49.83
2017-12-30T06:38:13.067Z,49.83
2017-12-30T06:40:39.281Z,49.83
2017-12-30T06:43:05.484Z,49.82
2017-12-30T06:45:31.712Z,49.83
2017-12-30T06:47:57.982Z,49.85
2017-12-30T06:50:24.197Z,49.85
2017-12-30T06:52:50.410Z,49.85
2017-12-30T06:55:16.660Z,49.90
2017-12-30T06:57:42.915Z,49.89
2017-12-30T07:00:09.149Z,49.90
2017-12-30T07:02:35.433Z,49.90
2017-12-30T07:05:01.669Z,49.88
2017-12-30T07:07:27.853Z,49.92
2017-12-30T07:09:54.090Z,49.95
2017-12-30T07:12:20.278Z,49.98
2017-12-30T07:14:46.533Z,49.97
2017-12-30T07:17:12.891Z,49.97
2017-12-30T07:19:39.104Z,49.99
2017-12-30T07:22:05.369Z,50.00
2017-12-30T07:24:31.599Z,49.97
2017-12-30T07:26:57.823Z,49.97
2017-12-30T07:29:24.094Z,49.98
2017-12-30T07:31:50.372Z,49.97
2017-12-30T07:34:16.610Z,49.98
2017-12-30T07:36:42.838Z,49.95
2017-12-30T07:39:09.085Z,49.96
2017-12-30T07:41:35.275Z,49.98
2017-12-30T07:44:01.699Z,49.95
2017-12-30T07:46:27.943Z,49.94
2017-12-30T07:48:54.378Z,49.93
2017-12-30T07:51:20.598Z,49.85
2017-12-30T07:53:46.890Z,49.86
2017-12-30T07:56:13.112Z,49.84
2017-12-30T07:58:39.533Z,49.82
2017-12-30T08:01:05.818Z,49.79
2017-12-30T08:03:32.049Z,49.79
2017-12-30T08:05:58.252Z,49.78
2017-12-30T08:08:24.972Z,49.79
2017-12-30T08:10:51.177Z,49.77
2017-12-30T08:13:17.386Z,49.76
2017-12-30T08:15:43.638Z,49.75
2017-12-30T08:18:09.813Z,49.72
2017-12-30T08:20:36.090Z,49.74
2017-12-30T08:23:02.409Z,49.75
2017-12-30T08:25:28.649Z,49.76
2017-12-30T08:27:54.858Z,49.76
2017-12-30T08:30:21.116Z,49.77
2017-12-30T08:32:47.355Z,49.78
2017-12-30T08:35:13.888Z,49.77
2017-12-30T08:37:40.136Z,49.77
2017-12-30T08:40:06.312Z,49.76
2017-12-30T08:42:32.491Z,49.79
2017-12-30T08:44:58.744Z,49.82
2017-12-30T08:47:24.966Z,49.82
2017-12-30T08:49:51.206Z,49.84
2017-12-30T08:52:17.493Z,49.87
2017-12-30T08:54:43.680Z,49.96
2017-12-30T08:57:09.896Z,50.05
2017-12-30T08:59:36.134Z,50.11
2017-12-30T09:02:02.341Z,50.12
2017-12-30T09:04:28.786Z,50.11
2017-12-30T09:06:55.133Z,50.15
2017-12-30T09:09:21.326Z,50.16
2017-12-30T09:11:47.549Z,50.14
2017-12-30T09:14:13.794Z,50.17
2017-12-30T09:16:40.061Z,50.15
2017-12-30T09:19:06.293Z,50.15
2017-12-30T09:21:32.527Z,50.13
2017-12-30T09:23:58.732Z,50.14
2017-12-30T09:26:24.970Z,50.15
2017-12-30T09:28:51.211Z,50.16
2017-12-30T09:31:17.410Z,50.16
2017-12-30T09:33:43.627Z,50.14
2017-12-30T09:36:09.927Z,50.12
2017-12-30T09:38:36.146Z,50.11
2017-12-30T09:41:02.388Z,50.06
2017-12-30T09:43:28.893Z,49.99
2017-12-30T09:45:55.121Z,49.97
2017-12-30T09:48:21.332Z,49.97
2017-12-30T09:50:47.577Z,49.96
2017-12-30T09:53:13.792Z,49.96
2017-12-30T09:55:40.265Z,49.96
2017-12-30T09:58:06.517Z,49.95
2017-12-30T10:00:32.710Z,49.91
2017-12-30T10:02:58.942Z,49.90
2017-12-30T10:05:25.277Z,49.89
2017-12-30T10:07:51.466Z,49.93
2017-12-30T10:10:17.668Z,49.96
2017-12-30T10:12:44.179Z,49.97
2017-12-30T10:15:10.366Z,49.98
2017-12-30T10:17:36.645Z,49.99
2017-12-30T10:20:02.946Z,49.94
2017-12-30T10:22:29.129Z,49.93
2017-12-30T10:24:55.378Z,49.94
2017-12-30T10:27:21.668Z,50.00
2017-12-30T10:29:47.894Z,50.06
2017-12-30T10:32:14.268Z,50.05
2017-12-30T10:34:40.610Z,50.07
2017-12-30T10:37:06.803Z,50.11
2017-12-30T10:39:33.022Z,50.07
2017-12-30T10:41:59.307Z,50.06
2017-12-30T10:44:25.518Z,50.04
2017-12-30T10:46:51.956Z,50.03
2017-12-30T10:49:18.199Z,50.05
2017-12-30T10:51:44.428Z,50.04
2017-12-30T10:54:10.645Z,50.02
2017-12-30T10:56:36.892Z,50.01
2017-12-30T10:59:03.312Z,50.02
2017-12-30T11:01:29.536Z,50.03
2017-12-30T11:03:56.077Z,50.04
2017-12-30T11:06:22.328Z,50.05
2017-12-30T11:08:48.545Z,50.04
2017-12-30T11:11:14.788Z,50.03
2017-12-30T11:13:41.005Z,50.04
2017-12-30T11:16:07.505Z,50.01
2017-12-30T11:18:33.755Z,49.98
2017-12-30T11:20:59.984Z,49.96
2017-12-30T11:23:26.192Z,49.97
2017-12-30T11:25:52.510Z,49.98
2017-12-30T11:28:18.728Z,49.95
2017-12-30T11:30:44.935Z,49.95
2017-12-30T11:33:11.215Z,49.92
2017-12-30T11:35:37.396Z,49.90
2017-12-30T11:38:03.628Z,49.91
2017-12-30T11:40:29.883Z,49.92
2017-12-30T11:42:56.339Z,49.94
2017-12-30T11:45:22.798Z,49.93
2017-12-30T11:47:49.056Z,49.90
2017-12-30T11:50:15.228Z,49.86
2017-12-30T11:52:41.544Z,49.86
2017-12-30T11:55:07.797Z,49.83
2017-12-30T11:57:34.028Z,49.83
2017-12-30T12:00:00.290Z,49.86
2017-12-30T12:02:26.489Z,49.87
2017-12-30T12:04:52.727Z,49.93
2017-12-30T12:07:18.971Z,49.98
2017-12-30T12:09:45.196Z,49.99
2017-12-30T12:12:11.421Z,50.01
2017-12-30T12:14:37.692Z,50.04
2017-12-30T12:17:04.235Z,50.08
2017-12-30T12:19:30.459Z,50.10
2017-12-30T12:21:56.732Z,50.12
2017-12-30T12:24:23.059Z,50.10
2017-12-30T12:26:49.558Z,50.09
2017-12-30T12:29:15.795Z,50.10
2017-12-30T12:31:42.048Z,50.10
2017-12-30T12:34:08.257Z,50.08
2017-12-30T12:36:34.743Z,50.05
2017-12-30T12:39:01.010Z,50.03
2017-12-30T12:41:27.211Z,50.03
2017-12-30T12:43:53.460Z,50.07
2017-12-30T12:46:19.696Z,50.09
2017-12-30T12:48:45.904Z,50.09
2017-12-30T12:51:12.204Z,50.06
2017-12-30T12:53:38.409Z,50.06
2017-12-30T12:56:04.615Z,50.08
2017-12-30T12:58:30.890Z,50.10
2017-12-30T13:00:57.109Z,50.14
2017-12-30T13:03:23.331Z,50.18
2017-12-30T13:05:49.610Z,50.16
2017-12-30T13:08:16.036Z,50.16
2017-12-30T13:10:42.223Z,50.18
2017-12-30T13:13:08.503Z,50.17
2017-12-30T13:15:34.695Z,50.17
2017-12-30T13:18:00.882Z,50.21
2017-12-30T13:20:27.187Z,50.21
2017-12-30T13:22:53.467Z,50.22
2017-12-30T13:25:19.674Z,50.21
2017-12-30T13:27:45.921Z,50.23
2017-12-30T13:30:12.205Z,50.27
2017-12-30T13:32:38.425Z,50.28
2017-12-30T13:35:04.710Z,50.30
2017-12-30T13:37:30.902Z,50.33
2017-12-30T13:39:57.112Z,50.34
2017-12-30T13:42:23.406Z,50.36
2017-12-30T13:44:55.651Z,50.37
2017-12-30T13:47:21.841Z,50.38
2017-12-30T13:49:48.076Z,50.40
2017-12-30T13:52:14.261Z,50.40
2017-12-30T13:54:40.837Z,50.40
2017-12-30T13:57:07.080Z,50.40
2017-12-30T13:59:33.286Z,50.39
2017-12-30T14:01:59.477Z,50.39
2017-12-30T14:04:25.760Z,50.40
2017-12-30T14:06:52.279Z,50.40
2017-12-30T14:09:18.485Z,50.40
2017-12-30T14:11:44.704Z,50.39
2017-12-30T14:14:10.933Z,50.37
2017-12-30T14:16:37.505Z,50.39
2017-12-30T14:19:03.789Z,50.41
2017-12-30T14:21:30.105Z,50.45
2017-12-30T14:23:56.319Z,50.45
2017-12-30T14:26:22.606Z,50.43
2017-12-30T14:28:48.854Z,50.40
2017-12-30T14:31:15.085Z,50.39
2017-12-30T14:33:41.327Z,50.40
2017-12-30T14:36:07.555Z,50.37
2017-12-30T14:38:33.803Z,50.34
2017-12-30T14:41:00.056Z,50.34
2017-12-30T14:43:26.280Z,50.35
2017-12-30T14:45:52.859Z,50.36
2017-12-30T14:48:19.165Z,50.34
2017-12-30T14:50:45.361Z,50.36
2017-12-30T14:53:11.587Z,50.35
2017-12-30T14:55:37.855Z,50.35
2017-12-30T14:58:04.062Z,50.33
2017-12-30T15:00:30.492Z,50.33
2017-12-30T15:02:56.758Z,50.33
2017-12-30T15:05:22.962Z,50.33
2017-12-30T15:07:49.145Z,50.32
2017-12-30T15:10:15.429Z,50.33
2017-12-30T15:12:41.636Z,50.33
2017-12-30T15:15:07.820Z,50.36
2017-12-30T15:17:34.082Z,50.37
2017-12-30T15:20:00.285Z,50.40
2017-12-30T15:22:26.708Z,50.41
2017-12-30T15:24:52.947Z,50.43
2017-12-30T15:27:19.193Z,50.43
2017-12-30T15:29:45.386Z,50.43
2017-12-30T15:32:11.640Z,50.43
2017-12-30T15:34:37.861Z,50.43
2017-12-30T15:37:04.058Z,50.41
2017-12-30T15:39:30.285Z,50.38
2017-12-30T15:41:56.517Z,50.39
2017-12-30T15:44:22.712Z,50.39
2017-12-30T15:46:48.971Z,50.37
2017-12-30T15:49:15.201Z,50.36
2017-12-30T15:51:41.734Z,50.33
2017-12-30T15:54:08.369Z,50.31
2017-12-30T15:56:34.550Z,50.29
2017-12-30T15:59:00.762Z,50.34
2017-12-30T16:01:26.998Z,50.31
2017-12-30T16:03:53.490Z,50.33
2017-12-30T16:06:19.718Z,50.34
2017-12-30T16:08:46.014Z,50.37
2017-12-30T16:11:12.238Z,50.34
2017-12-30T16:13:38.709Z,50.32
2017-12-30T16:16:04.962Z,50.34
2017-12-30T16:18:31.189Z,50.34
2017-12-30T16:20:57.413Z,50.33
2017-12-30T16:23:23.700Z,50.35
2017-12-30T16:25:49.933Z,50.38
2017-12-30T16:28:16.196Z,50.36
2017-12-30T16:30:42.724Z,50.36
2017-12-30T16:33:08.896Z,50.37
2017-12-30T16:35:35.332Z,50.34
2017-12-30T16:38:01.605Z,50.36
2017-12-30T16:40:27.833Z,50.40
2017-12-30T16:42:54.073Z,50.42
2017-12-30T16:45:20.420Z,50.41
2017-12-30T16:47:46.599Z,50.48
2017-12-30T16:50:12.817Z,50.51
2017-12-30T16:52:39.152Z,50.53
2017-12-30T16:55:05.382Z,50.59
2017-12-30T16:57:31.941Z,50.63
2017-12-30T16:59:58.199Z,50.62
2017-12-30T17:02:24.405Z,50.60
2017-12-30T17:04:50.622Z,50.66
2017-12-30T17:07:16.939Z,50.72
2017-12-30T17:09:43.222Z,50.78
2017-12-30T17:12:09.431Z,50.78
2017-12-30T17:14:35.672Z,50.81
2017-12-30T17:17:01.856Z,50.81
2017-12-30T17:19:28.311Z,50.82
2017-12-30T17:21:54.608Z,50.86
2017-12-30T17:24:20.833Z,50.85
2017-12-30T17:26:47.019Z,50.90
2017-12-30T17:29:13.298Z,50.91
2017-12-30T17:31:39.556Z,50.97
2017-12-30T17:34:05.797Z,51.00
2017-12-30T17:36:32.083Z,50.96
2017-12-30T17:38:58.280Z,50.96
2017-12-30T17:41:24.472Z,50.97
2017-12-30T17:43:50.714Z,51.01
2017-12-30T17:46:16.904Z,51.02
2017-12-30T17:48:43.318Z,51.02
2017-12-30T17:51:09.541Z,51.00
2017-12-30T17:53:35.792Z,51.03
2017-12-30T17:56:02.027Z,51.00
2017-12-30T17:58:28.311Z,51.04
2017-12-30T18:00:54.786Z,51.04
2017-12-30T18:03:20.973Z,51.03
2017-12-30T18:05:47.273Z,51.03
2017-12-30T18:08:13.478Z,51.08
2017-12-30T18:10:39.914Z,51.10
2017-12-30T18:13:06.390Z,51.04
2017-12-30T18:15:32.594Z,51.03
2017-12-30T18:17:58.996Z,51.04
2017-12-30T18:20:25.247Z,51.10
2017-12-30T18:22:51.480Z,51.06
2017-12-30T18:25:17.708Z,51.10
2017-12-30T18:27:43.989Z,51.11
2017-12-30T18:30:10.211Z,51.12
2017-12-30T18:32:36.385Z,51.10
2017-12-30T18:35:02.638Z,51.10
2017-12-30T18:37:28.860Z,51.14
2017-12-30T18:39:55.281Z,51.16
2017-12-30T18:42:21.565Z,51.15
2017-12-30T18:44:47.784Z,51.18
2017-12-30T18:47:14.253Z,51.18
2017-12-30T18:49:40.542Z,51.21
2017-12-30T18:52:06.743Z,51.25
2017-12-30T18:54:33.233Z,51.25
2017-12-30T18:56:59.537Z,51.21
2017-12-30T18:59:25.952Z,51.20
2017-12-30T19:01:52.124Z,51.19
2017-12-30T19:04:18.429Z,51.22
2017-12-30T19:06:44.856Z,51.22
2017-12-30T19:09:11.335Z,51.23
2017-12-30T19:11:37.564Z,51.27
2017-12-30T19:14:03.749Z,51.27
2017-12-30T19:16:29.980Z,51.26
2017-12-30T19:18:56.230Z,51.22
2017-12-30T19:21:22.651Z,51.29
2017-12-30T19:23:48.832Z,51.29
2017-12-30T19:26:15.097Z,51.29
2017-12-30T19:28:41.397Z,51.28
2017-12-30T19:31:07.596Z,51.29
2017-12-30T19:33:33.891Z,51.34
2017-12-30T19:36:00.099Z,51.36
2017-12-30T19:38:26.290Z,51.34
2017-12-30T19:40:52.777Z,51.31
2017-12-30T19:43:19.211Z,51.31
2017-12-30T19:45:45.443Z,51.31
2017-12-30T19:48:11.700Z,51.33
2017-12-30T19:50:37.932Z,51.33
2017-12-30T19:53:04.464Z,51.32
2017-12-30T19:55:30.815Z,51.29
2017-12-30T19:57:57.151Z,51.26
2017-12-30T20:00:23.428Z,51.30
2017-12-30T20:02:49.964Z,51.30
2017-12-30T20:05:16.526Z,51.30
2017-12-30T20:07:42.747Z,51.29
2017-12-30T20:10:09.037Z,51.24
2017-12-30T20:12:35.265Z,51.23
2017-12-30T20:15:01.568Z,51.26
2017-12-30T20:17:28.186Z,51.20
2017-12-30T20:19:54.407Z,51.27
2017-12-30T20:22:20.654Z,51.24
2017-12-30T20:24:46.967Z,51.25
2017-12-30T20:27:13.312Z,51.24
2017-12-30T20:29:39.593Z,51.25
2017-12-30T20:32:06.279Z,51.26
2017-12-30T20:34:38.552Z,51.25
2017-12-30T20:37:04.996Z,51.24
2017-12-30T20:39:31.270Z,51.27
2017-12-30T20:41:57.588Z,51.27
2017-12-30T20:44:23.919Z,51.26
2017-12-30T20:46:50.252Z,51.27
2017-12-30T20:49:16.520Z,51.26
2017-12-30T20:51:42.810Z,51.26
2017-12-30T20:54:09.157Z,51.27
2017-12-30T20:56:35.377Z,51.26
2017-12-30T20:59:01.656Z,51.24
2017-12-30T21:01:28.208Z,51.21
2017-12-30T21:03:54.439Z,51.23
2017-12-30T21:06:20.692Z,51.23
2017-12-30T21:08:46.988Z,51.22
2017-12-30T21:11:13.267Z,51.21
2017-12-30T21:13:39.621Z,51.21
2017-12-30T21:16:05.919Z,51.21
2017-12-30T21:18:32.194Z,51.23
2017-12-30T21:20:58.496Z,51.25
2017-12-30T21:23:24.825Z,51.24
2017-12-30T21:25:51.068Z,51.26
2017-12-30T21:28:17.379Z,51.23
2017-12-30T21:30:43.741Z,51.22
2017-12-30T21:33:10.044Z,51.22
2017-12-30T21:35:36.300Z,51.23
2017-12-30T21:38:02.640Z,51.22
2017-12-30T21:40:29.266Z,51.21
2017-12-30T21:42:55.755Z,51.24
2017-12-30T21:45:22.319Z,51.24
2017-12-30T21:47:48.859Z,51.24
2017-12-30T21:50:15.091Z,51.22
2017-12-30T21:52:41.379Z,51.23
2017-12-30T21:55:07.617Z,51.20
2017-12-30T21:57:33.892Z,51.18
2017-12-30T22:00:00.207Z,51.16
2017-12-30T22:02:26.503Z,51.19
2017-12-30T22:04:52.732Z,51.18
2017-12-30T22:07:19.049Z,51.17
2017-12-30T22:09:45.324Z,51.19
2017-12-30T22:12:11.587Z,51.25
2017-12-30T22:14:37.967Z,51.29
2017-12-30T22:17:04.222Z,51.26
2017-12-30T22:19:30.518Z,51.19
2017-12-30T22:21:56.842Z,51.22
2017-12-30T22:24:23.139Z,51.22
2017-12-30T22:26:49.417Z,51.23
2017-12-30T22:29:15.681Z,51.23
2017-12-30T22:31:41.912Z,51.23
2017-12-30T22:34:08.173Z,51.23
2017-12-30T22:36:34.432Z,51.25
2017-12-30T22:39:00.608Z,51.26
2017-12-30T22:41:26.798Z,51.26
2017-12-30T22:43:53.299Z,51.28
2017-12-30T22:46:19.479Z,51.29
2017-12-30T22:48:45.689Z,51.29
2017-12-30T22:51:11.960Z,51.29
2017-12-30T22:53:38.194Z,51.28
2017-12-30T22:56:04.437Z,51.31
2017-12-30T22:58:30.722Z,51.31
2017-12-30T23:01:03.386Z,51.34
2017-12-30T23:03:29.570Z,51.36
2017-12-30T23:05:55.846Z,51.36
2017-12-30T23:08:22.376Z,51.34
2017-12-30T23:10:48.589Z,51.33
2017-12-30T23:13:14.871Z,51.33
2017-12-30T23:15:41.082Z,51.33
2017-12-30T23:18:07.298Z,51.31
2017-12-30T23:20:33.534Z,51.33
2017-12-30T23:22:59.760Z,51.33
2017-12-30T23:25:25.992Z,51.31
2017-12-30T23:27:52.240Z,51.29
2017-12-30T23:30:18.738Z,51.29
2017-12-30T23:32:44.968Z,51.28
2017-12-30T23:35:11.206Z,51.27
2017-12-30T23:37:37.396Z,51.26
2017-12-30T23:40:03.608Z,51.24
2017-12-30T23:42:29.859Z,51.23
2017-12-30T23:44:56.074Z,51.24
2017-12-30T23:47:22.269Z,51.23
2017-12-30T23:49:48.518Z,51.24
2017-12-30T23:52:14.987Z,51.27
2017-12-30T23:54:41.416Z,51.26
2017-12-30T23:57:07.687Z,51.25
2017-12-30T23:59:33.879Z,51.22
